sensor_id;sensor_type;location;lat;lon;timestamp;pressure;altitude;pressure_sealevel;temperature;humidity
79221;BME280;68648;52.114;5.424;2023-06-14T00:00:33;101611.06;;;17.22;48.02
79221;BME280;68648;52.114;5.424;2023-06-14T00:03:02;101617.59;;;17.20;48.38
79221;BME280;68648;52.114;5.424;2023-06-14T00:05:30;101613.41;;;17.17;48.55
79221;BME280;68648;52.114;5.424;2023-06-14T00:07:59;101621.91;;;17.12;49.09
79221;BME280;68648;52.114;5.424;2023-06-14T00:10:26;101621.53;;;17.07;49.21
79221;BME280;68648;52.114;5.424;2023-06-14T00:12:57;101615.19;;;17.08;49.05
79221;BME280;68648;52.114;5.424;2023-06-14T00:15:24;101615.03;;;17.02;49.14
79221;BME280;68648;52.114;5.424;2023-06-14T00:17:50;101612.66;;;16.99;49.23
79221;BME280;68648;52.114;5.424;2023-06-14T00:20:17;101610.50;;;17.02;49.30
79221;BME280;68648;52.114;5.424;2023-06-14T00:22:45;101612.66;;;16.99;49.20
79221;BME280;68648;52.114;5.424;2023-06-14T00:25:12;101619.69;;;17.00;49.06
79221;BME280;68648;52.114;5.424;2023-06-14T00:27:55;101621.53;;;17.07;49.01
79221;BME280;68648;52.114;5.424;2023-06-14T00:30:22;101628.94;;;17.13;48.59
79221;BME280;68648;52.114;5.424;2023-06-14T00:32:49;101623.59;;;17.13;48.81
79221;BME280;68648;52.114;5.424;2023-06-14T00:35:16;101625.06;;;17.08;49.01
79221;BME280;68648;52.114;5.424;2023-06-14T00:37:43;101625.19;;;16.98;49.06
79221;BME280;68648;52.114;5.424;2023-06-14T00:40:10;101624.50;;;16.96;49.09
79221;BME280;68648;52.114;5.424;2023-06-14T00:42:37;101620.03;;;17.05;48.90
79221;BME280;68648;52.114;5.424;2023-06-14T00:45:03;101621.88;;;17.04;48.71
79221;BME280;68648;52.114;5.424;2023-06-14T00:47:30;101623.00;;;16.94;49.29
79221;BME280;68648;52.114;5.424;2023-06-14T00:49:57;101626.78;;;16.83;49.57
79221;BME280;68648;52.114;5.424;2023-06-14T00:52:24;101626.59;;;16.76;49.70
79221;BME280;68648;52.114;5.424;2023-06-14T00:54:51;101623.75;;;16.78;49.66
79221;BME280;68648;52.114;5.424;2023-06-14T00:57:19;101627.09;;;16.72;49.74
79221;BME280;68648;52.114;5.424;2023-06-14T00:59:48;101619.84;;;16.64;49.63
79221;BME280;68648;52.114;5.424;2023-06-14T01:02:16;101617.56;;;16.52;49.98
79221;BME280;68648;52.114;5.424;2023-06-14T01:04:49;101621.09;;;16.52;50.09
79221;BME280;68648;52.114;5.424;2023-06-14T01:07:20;101620.41;;;16.50;49.02
79221;BME280;68648;52.114;5.424;2023-06-14T01:12:59;101629.34;;;16.41;50.39
79221;BME280;68648;52.114;5.424;2023-06-14T01:15:30;101624.34;;;16.38;50.18
79221;BME280;68648;52.114;5.424;2023-06-14T01:17:57;101617.31;;;16.37;50.32
79221;BME280;68648;52.114;5.424;2023-06-14T01:20:32;101618.63;;;16.33;50.38
79221;BME280;68648;52.114;5.424;2023-06-14T01:22:59;101616.94;;;16.32;50.55
79221;BME280;68648;52.114;5.424;2023-06-14T01:25:26;101621.28;;;16.33;50.35
79221;BME280;68648;52.114;5.424;2023-06-14T01:27:55;101615.25;;;16.31;50.44
79221;BME280;68648;52.114;5.424;2023-06-14T01:30:24;101625.41;;;16.27;50.45
79221;BME280;68648;52.114;5.424;2023-06-14T01:32:53;101617.91;;;16.23;50.53
79221;BME280;68648;52.114;5.424;2023-06-14T01:35:21;101620.72;;;16.21;50.97
79221;BME280;68648;52.114;5.424;2023-06-14T01:37:49;101622.56;;;16.21;50.85
79221;BME280;68648;52.114;5.424;2023-06-14T01:40:17;101622.16;;;16.16;50.46
79221;BME280;68648;52.114;5.424;2023-06-14T01:42:46;101622.94;;;16.08;50.67
79221;BME280;68648;52.114;5.424;2023-06-14T01:45:14;101626.94;;;16.04;50.78
79221;BME280;68648;52.114;5.424;2023-06-14T01:47:42;101633.25;;;16.03;51.19
79221;BME280;68648;52.114;5.424;2023-06-14T01:50:10;101629.75;;;16.02;50.86
79221;BME280;68648;52.114;5.424;2023-06-14T01:52:37;101626.78;;;16.05;51.02
79221;BME280;68648;52.114;5.424;2023-06-14T01:55:05;101632.63;;;16.09;51.07
79221;BME280;68648;52.114;5.424;2023-06-14T01:57:32;101624.94;;;16.06;50.82
79221;BME280;68648;52.114;5.424;2023-06-14T01:59:59;101618.53;;;15.99;50.90
79221;BME280;68648;52.114;5.424;2023-06-14T02:02:26;101623.72;;;15.83;51.89
79221;BME280;68648;52.114;5.424;2023-06-14T02:04:53;101621.91;;;15.65;51.69
79221;BME280;68648;52.114;5.424;2023-06-14T02:07:24;101620.41;;;15.53;52.66
79221;BME280;68648;52.114;5.424;2023-06-14T02:09:51;101621.84;;;15.48;52.62
79221;BME280;68648;52.114;5.424;2023-06-14T02:12:17;101627.81;;;15.42;53.21
79221;BME280;68648;52.114;5.424;2023-06-14T02:14:44;101628.25;;;15.37;53.34
79221;BME280;68648;52.114;5.424;2023-06-14T02:17:11;101625.34;;;15.30;53.11
79221;BME280;68648;52.114;5.424;2023-06-14T02:19:38;101621.59;;;15.23;53.40
79221;BME280;68648;52.114;5.424;2023-06-14T02:22:05;101622.19;;;15.17;53.37
79221;BME280;68648;52.114;5.424;2023-06-14T02:24:32;101623.47;;;15.13;53.38
79221;BME280;68648;52.114;5.424;2023-06-14T02:26:58;101629.94;;;15.11;53.52
79221;BME280;68648;52.114;5.424;2023-06-14T02:29:27;101628.56;;;15.07;53.50
79221;BME280;68648;52.114;5.424;2023-06-14T02:31:54;101625.50;;;15.01;53.50
79221;BME280;68648;52.114;5.424;2023-06-14T02:34:21;101624.94;;;14.98;53.80
79221;BME280;68648;52.114;5.424;2023-06-14T02:36:48;101622.19;;;14.90;54.22
79221;BME280;68648;52.114;5.424;2023-06-14T02:39:16;101628.25;;;14.82;54.41
79221;BME280;68648;52.114;5.424;2023-06-14T02:41:44;101625.03;;;14.79;54.07
79221;BME280;68648;52.114;5.424;2023-06-14T02:44:10;101630.06;;;14.82;54.00
79221;BME280;68648;52.114;5.424;2023-06-14T02:46:39;101630.06;;;14.82;54.25
79221;BME280;68648;52.114;5.424;2023-06-14T02:49:06;101639.34;;;14.78;53.66
79221;BME280;68648;52.114;5.424;2023-06-14T02:51:32;101631.09;;;14.71;54.45
79221;BME280;68648;52.114;5.424;2023-06-14T02:53:59;101636.56;;;14.69;54.73
79221;BME280;68648;52.114;5.424;2023-06-14T02:56:26;101628.88;;;14.66;54.52
79221;BME280;68648;52.114;5.424;2023-06-14T02:58:55;101644.75;;;14.58;54.57
79221;BME280;68648;52.114;5.424;2023-06-14T03:01:25;101636.50;;;14.52;55.16
79221;BME280;68648;52.114;5.424;2023-06-14T03:04:03;101642.78;;;14.51;54.90
79221;BME280;68648;52.114;5.424;2023-06-14T03:06:31;101644.91;;;14.47;55.51
79221;BME280;68648;52.114;5.424;2023-06-14T03:08:58;101655.88;;;14.44;55.23
79221;BME280;68648;52.114;5.424;2023-06-14T03:11:31;101655.31;;;14.41;55.64
79221;BME280;68648;52.114;5.424;2023-06-14T03:13:58;101649.69;;;14.44;55.39
79221;BME280;68648;52.114;5.424;2023-06-14T03:16:25;101663.84;;;14.44;55.87
79221;BME280;68648;52.114;5.424;2023-06-14T03:18:55;101663.84;;;14.44;55.68
79221;BME280;68648;52.114;5.424;2023-06-14T03:21:22;101663.28;;;14.41;55.82
79221;BME280;68648;52.114;5.424;2023-06-14T03:23:49;101671.28;;;14.41;55.78
79221;BME280;68648;52.114;5.424;2023-06-14T03:26:16;101658.91;;;14.40;56.06
79221;BME280;68648;52.114;5.424;2023-06-14T03:28:47;101662.56;;;14.39;56.05
79221;BME280;68648;52.114;5.424;2023-06-14T03:31:17;101668.88;;;14.38;56.03
79221;BME280;68648;52.114;5.424;2023-06-14T03:33:45;101671.09;;;14.32;56.17
79221;BME280;68648;52.114;5.424;2023-06-14T03:36:12;101663.56;;;14.28;56.58
79221;BME280;68648;52.114;5.424;2023-06-14T03:38:39;101666.66;;;14.23;56.75
79221;BME280;68648;52.114;5.424;2023-06-14T03:41:06;101663.84;;;14.25;56.74
79221;BME280;68648;52.114;5.424;2023-06-14T03:43:33;101676.88;;;14.28;56.80
79221;BME280;68648;52.114;5.424;2023-06-14T03:46:00;101672.22;;;14.30;56.59
79221;BME280;68648;52.114;5.424;2023-06-14T03:48:27;101673.38;;;14.27;56.60
79221;BME280;68648;52.114;5.424;2023-06-14T03:50:54;101684.69;;;14.29;56.60
79221;BME280;68648;52.114;5.424;2023-06-14T03:53:25;101681.63;;;14.34;57.12
79221;BME280;68648;52.114;5.424;2023-06-14T03:55:54;101684.47;;;14.42;56.64
79221;BME280;68648;52.114;5.424;2023-06-14T03:58:22;101682.03;;;14.49;56.36
79221;BME280;68648;52.114;5.424;2023-06-14T04:00:54;101682.31;;;14.55;56.20
79221;BME280;68648;52.114;5.424;2023-06-14T04:03:21;101685.78;;;14.65;56.11
79221;BME280;68648;52.114;5.424;2023-06-14T04:05:56;101687.06;;;14.71;56.10
79221;BME280;68648;52.114;5.424;2023-06-14T04:08:23;101695.28;;;14.78;55.68
79221;BME280;68648;52.114;5.424;2023-06-14T04:10:52;101703.13;;;14.79;56.04
79221;BME280;68648;52.114;5.424;2023-06-14T04:13:19;101699.63;;;14.79;56.13
79221;BME280;68648;52.114;5.424;2023-06-14T04:15:46;101702.16;;;14.80;56.35
79221;BME280;68648;52.114;5.424;2023-06-14T04:18:13;101707.75;;;14.87;56.06
79221;BME280;68648;52.114;5.424;2023-06-14T04:20:40;101702.69;;;14.93;56.39
79221;BME280;68648;52.114;5.424;2023-06-14T04:23:12;101708.97;;;15.02;55.95
79221;BME280;68648;52.114;5.424;2023-06-14T04:25:44;101712.28;;;15.14;55.65
79221;BME280;68648;52.114;5.424;2023-06-14T04:28:16;101702.44;;;15.24;55.34
79221;BME280;68648;52.114;5.424;2023-06-14T04:30:44;101710.38;;;15.33;55.56
79221;BME280;68648;52.114;5.424;2023-06-14T04:33:11;101708.66;;;15.42;55.69
79221;BME280;68648;52.114;5.424;2023-06-14T04:35:38;101713.25;;;15.50;55.38
79221;BME280;68648;52.114;5.424;2023-06-14T04:38:10;101713.06;;;15.61;55.26
79221;BME280;68648;52.114;5.424;2023-06-14T04:40:37;101709.34;;;15.71;55.12
79221;BME280;68648;52.114;5.424;2023-06-14T04:43:09;101711.94;;;15.81;55.37
79221;BME280;68648;52.114;5.424;2023-06-14T04:45:39;101711.06;;;15.90;54.68
79221;BME280;68648;52.114;5.424;2023-06-14T04:48:06;101718.84;;;16.01;54.75
79221;BME280;68648;52.114;5.424;2023-06-14T04:50:33;101723.09;;;16.12;54.56
79221;BME280;68648;52.114;5.424;2023-06-14T04:53:01;101714.88;;;16.23;54.45
79221;BME280;68648;52.114;5.424;2023-06-14T04:55:48;101720.66;;;16.36;54.01
79221;BME280;68648;52.114;5.424;2023-06-14T04:58:17;101720.56;;;16.46;54.12
79221;BME280;68648;52.114;5.424;2023-06-14T05:00:45;101725.13;;;16.54;53.62
79221;BME280;68648;52.114;5.424;2023-06-14T05:03:13;101733.59;;;16.67;53.43
79221;BME280;68648;52.114;5.424;2023-06-14T05:05:40;101726.00;;;16.80;53.20
79221;BME280;68648;52.114;5.424;2023-06-14T05:08:08;101725.06;;;16.89;52.63
79221;BME280;68648;52.114;5.424;2023-06-14T05:10:36;101728.47;;;16.99;52.59
79221;BME280;68648;52.114;5.424;2023-06-14T05:13:28;101728.34;;;17.09;52.59
79221;BME280;68648;52.114;5.424;2023-06-14T05:15:55;101726.56;;;17.18;52.57
79221;BME280;68648;52.114;5.424;2023-06-14T05:18:22;101725.97;;;17.32;52.27
79221;BME280;68648;52.114;5.424;2023-06-14T05:20:49;101733.00;;;17.41;52.03
79221;BME280;68648;52.114;5.424;2023-06-14T05:23:18;101737.91;;;17.54;52.05
79221;BME280;68648;52.114;5.424;2023-06-14T05:25:46;101729.97;;;17.70;51.57
79221;BME280;68648;52.114;5.424;2023-06-14T05:28:15;101737.88;;;17.79;50.98
79221;BME280;68648;52.114;5.424;2023-06-14T05:30:42;101733.38;;;17.96;51.16
79221;BME280;68648;52.114;5.424;2023-06-14T05:33:10;101732.75;;;18.10;50.29
79221;BME280;68648;52.114;5.424;2023-06-14T05:35:37;101737.63;;;18.31;49.94
79221;BME280;68648;52.114;5.424;2023-06-14T05:38:04;101741.97;;;18.40;49.75
79221;BME280;68648;52.114;5.424;2023-06-14T05:40:34;101748.31;;;18.56;49.51
79221;BME280;68648;52.114;5.424;2023-06-14T05:43:01;101752.22;;;18.61;48.65
79221;BME280;68648;52.114;5.424;2023-06-14T05:45:28;101745.50;;;18.81;48.61
79221;BME280;68648;52.114;5.424;2023-06-14T05:47:55;101757.19;;;18.88;47.75
79221;BME280;68648;52.114;5.424;2023-06-14T05:50:22;101752.84;;;18.96;46.75
79221;BME280;68648;52.114;5.424;2023-06-14T05:52:49;101751.16;;;18.95;47.33
79221;BME280;68648;52.114;5.424;2023-06-14T05:55:16;101757.53;;;18.94;46.48
79221;BME280;68648;52.114;5.424;2023-06-14T05:57:45;101756.03;;;18.91;47.00
79221;BME280;68648;52.114;5.424;2023-06-14T06:00:13;101759.19;;;19.03;46.44
79221;BME280;68648;52.114;5.424;2023-06-14T06:02:43;101776.09;;;19.19;45.51
79221;BME280;68648;52.114;5.424;2023-06-14T06:05:13;101764.50;;;19.19;45.73
79221;BME280;68648;52.114;5.424;2023-06-14T06:07:43;101768.69;;;19.30;45.36
79221;BME280;68648;52.114;5.424;2023-06-14T06:10:13;101773.53;;;19.34;45.45
79221;BME280;68648;52.114;5.424;2023-06-14T06:12:41;101765.63;;;19.33;44.41
79221;BME280;68648;52.114;5.424;2023-06-14T06:15:08;101771.00;;;19.33;44.89
79221;BME280;68648;52.114;5.424;2023-06-14T06:17:39;101780.19;;;19.54;44.96
79221;BME280;68648;52.114;5.424;2023-06-14T06:20:23;101781.19;;;19.62;43.92
79221;BME280;68648;52.114;5.424;2023-06-14T06:22:56;101773.91;;;19.78;44.29
79221;BME280;68648;52.114;5.424;2023-06-14T06:25:23;101768.59;;;19.93;44.55
79221;BME280;68648;52.114;5.424;2023-06-14T06:27:56;101771.97;;;19.95;42.99
79221;BME280;68648;52.114;5.424;2023-06-14T06:30:30;101760.31;;;20.03;43.34
79221;BME280;68648;52.114;5.424;2023-06-14T06:32:57;101782.22;;;20.14;42.86
79221;BME280;68648;52.114;5.424;2023-06-14T06:35:24;101777.50;;;20.16;44.21
79221;BME280;68648;52.114;5.424;2023-06-14T06:37:50;101781.88;;;20.17;42.55
79221;BME280;68648;52.114;5.424;2023-06-14T06:40:17;101783.78;;;20.40;42.29
79221;BME280;68648;52.114;5.424;2023-06-14T06:42:43;101782.44;;;20.58;41.54
79221;BME280;68648;52.114;5.424;2023-06-14T06:45:10;101783.09;;;20.60;41.83
79221;BME280;68648;52.114;5.424;2023-06-14T06:47:37;101783.69;;;20.71;41.95
79221;BME280;68648;52.114;5.424;2023-06-14T06:50:04;101789.72;;;20.73;40.88
79221;BME280;68648;52.114;5.424;2023-06-14T06:52:31;101789.53;;;20.74;41.22
79221;BME280;68648;52.114;5.424;2023-06-14T06:54:57;101792.00;;;20.61;40.61
79221;BME280;68648;52.114;5.424;2023-06-14T06:57:24;101797.66;;;20.66;40.88
79221;BME280;68648;52.114;5.424;2023-06-14T06:59:51;101800.47;;;20.73;40.21
79221;BME280;68648;52.114;5.424;2023-06-14T07:02:18;101802.16;;;20.74;40.76
79221;BME280;68648;52.114;5.424;2023-06-14T07:04:45;101806.41;;;21.06;39.93
79221;BME280;68648;52.114;5.424;2023-06-14T07:07:11;101808.97;;;20.99;39.29
79221;BME280;68648;52.114;5.424;2023-06-14T07:09:38;101807.66;;;20.95;39.88
79221;BME280;68648;52.114;5.424;2023-06-14T07:12:05;101807.78;;;21.02;40.18
79221;BME280;68648;52.114;5.424;2023-06-14T07:14:31;101800.91;;;21.14;39.71
79221;BME280;68648;52.114;5.424;2023-06-14T07:16:58;101804.44;;;21.14;39.32
79221;BME280;68648;52.114;5.424;2023-06-14T07:19:26;101812.66;;;21.36;38.46
79221;BME280;68648;52.114;5.424;2023-06-14T07:21:52;101809.78;;;21.37;39.02
79221;BME280;68648;52.114;5.424;2023-06-14T07:24:19;101809.31;;;21.63;38.46
79221;BME280;68648;52.114;5.424;2023-06-14T07:26:48;101812.38;;;21.60;37.72
79221;BME280;68648;52.114;5.424;2023-06-14T07:29:15;101816.31;;;21.57;39.00
79221;BME280;68648;52.114;5.424;2023-06-14T07:31:42;101816.81;;;21.82;38.68
79221;BME280;68648;52.114;5.424;2023-06-14T07:34:09;101821.16;;;21.98;38.62
79221;BME280;68648;52.114;5.424;2023-06-14T07:36:36;101816.31;;;22.23;37.27
79221;BME280;68648;52.114;5.424;2023-06-14T07:39:03;101827.94;;;22.09;36.40
79221;BME280;68648;52.114;5.424;2023-06-14T07:41:32;101822.84;;;22.35;36.47
79221;BME280;68648;52.114;5.424;2023-06-14T07:43:59;101832.56;;;22.51;35.43
79221;BME280;68648;52.114;5.424;2023-06-14T07:46:26;101826.13;;;22.52;36.74
79221;BME280;68648;52.114;5.424;2023-06-14T07:48:52;101833.19;;;22.53;36.80
79221;BME280;68648;52.114;5.424;2023-06-14T07:51:19;101839.09;;;22.42;35.31
79221;BME280;68648;52.114;5.424;2023-06-14T07:53:46;101834.69;;;22.55;34.71
79221;BME280;68648;52.114;5.424;2023-06-14T07:56:13;101841.25;;;22.89;34.91
79221;BME280;68648;52.114;5.424;2023-06-14T07:58:40;101838.28;;;23.12;34.93
79221;BME280;68648;52.114;5.424;2023-06-14T08:01:07;101840.91;;;23.26;34.50
79221;BME280;68648;52.114;5.424;2023-06-14T08:03:34;101845.91;;;23.29;34.17
79221;BME280;68648;52.114;5.424;2023-06-14T08:06:03;101844.28;;;23.07;33.56
79221;BME280;68648;52.114;5.424;2023-06-14T08:08:31;101841.44;;;23.15;34.50
79221;BME280;68648;52.114;5.424;2023-06-14T08:10:58;101838.84;;;23.28;34.28
79221;BME280;68648;52.114;5.424;2023-06-14T08:13:25;101845.81;;;23.16;33.69
79221;BME280;68648;52.114;5.424;2023-06-14T08:15:51;101843.56;;;23.20;33.78
79221;BME280;68648;52.114;5.424;2023-06-14T08:18:18;101847.09;;;23.20;33.16
79221;BME280;68648;52.114;5.424;2023-06-14T08:20:44;101840.13;;;23.32;32.39
79221;BME280;68648;52.114;5.424;2023-06-14T08:23:11;101839.59;;;23.50;32.00
79221;BME280;68648;52.114;5.424;2023-06-14T08:25:37;101837.59;;;23.59;32.83
79221;BME280;68648;52.114;5.424;2023-06-14T08:28:04;101845.56;;;23.67;31.57
79221;BME280;68648;52.114;5.424;2023-06-14T08:30:31;101843.31;;;23.77;31.75
79221;BME280;68648;52.114;5.424;2023-06-14T08:32:57;101840.94;;;23.61;32.45
79221;BME280;68648;52.114;5.424;2023-06-14T08:35:41;101837.41;;;23.60;32.66
79221;BME280;68648;52.114;5.424;2023-06-14T08:38:10;101842.16;;;23.58;30.67
79221;BME280;68648;52.114;5.424;2023-06-14T08:40:38;101842.22;;;23.65;31.91
79221;BME280;68648;52.114;5.424;2023-06-14T08:43:06;101840.44;;;23.85;30.55
79221;BME280;68648;52.114;5.424;2023-06-14T08:45:32;101835.97;;;23.71;29.77
79221;BME280;68648;52.114;5.424;2023-06-14T08:47:59;101839.91;;;23.62;30.51
79221;BME280;68648;52.114;5.424;2023-06-14T08:50:27;101840.22;;;23.87;30.13
79221;BME280;68648;52.114;5.424;2023-06-14T08:53:00;101841.38;;;23.71;29.03
79221;BME280;68648;52.114;5.424;2023-06-14T08:55:31;101838.09;;;23.76;29.47
79221;BME280;68648;52.114;5.424;2023-06-14T08:58:02;101845.06;;;23.98;29.57
79221;BME280;68648;52.114;5.424;2023-06-14T09:00:30;101846.16;;;24.10;30.34
79221;BME280;68648;52.114;5.424;2023-06-14T09:02:57;101834.84;;;24.48;29.05
79221;BME280;68648;52.114;5.424;2023-06-14T09:05:25;101837.09;;;24.44;29.64
79221;BME280;68648;52.114;5.424;2023-06-14T09:07:53;101842.53;;;24.51;29.26
79221;BME280;68648;52.114;5.424;2023-06-14T09:10:24;101841.53;;;24.65;28.51
79221;BME280;68648;52.114;5.424;2023-06-14T09:12:53;101839.00;;;24.70;28.50
79221;BME280;68648;52.114;5.424;2023-06-14T09:15:21;101852.31;;;24.58;28.42
79221;BME280;68648;52.114;5.424;2023-06-14T09:17:50;101849.00;;;24.63;28.27
79221;BME280;68648;52.114;5.424;2023-06-14T09:20:17;101859.59;;;24.45;26.73
79221;BME280;68648;52.114;5.424;2023-06-14T09:22:46;101854.47;;;24.08;28.66
79221;BME280;68648;52.114;5.424;2023-06-14T09:25:13;101855.16;;;24.24;27.61
79221;BME280;68648;52.114;5.424;2023-06-14T09:28:01;101858.16;;;24.68;27.46
79221;BME280;68648;52.114;5.424;2023-06-14T09:30:28;101847.56;;;24.80;27.28
79221;BME280;68648;52.114;5.424;2023-06-14T09:32:55;101856.72;;;24.79;27.51
79221;BME280;68648;52.114;5.424;2023-06-14T09:35:26;101850.88;;;24.75;27.62
79221;BME280;68648;52.114;5.424;2023-06-14T09:37:56;101859.63;;;24.84;27.41
79221;BME280;68648;52.114;5.424;2023-06-14T09:40:23;101849.06;;;25.16;28.13
79221;BME280;68648;52.114;5.424;2023-06-14T09:42:51;101860.06;;;25.27;25.77
79221;BME280;68648;52.114;5.424;2023-06-14T09:45:20;101860.06;;;25.21;26.14
79221;BME280;68648;52.114;5.424;2023-06-14T09:47:49;101851.72;;;24.89;27.51
79221;BME280;68648;52.114;5.424;2023-06-14T09:50:32;101848.66;;;24.99;26.95
79221;BME280;68648;52.114;5.424;2023-06-14T09:53:03;101851.53;;;25.04;28.55
79221;BME280;68648;52.114;5.424;2023-06-14T09:55:36;101851.09;;;25.33;28.20
79221;BME280;68648;52.114;5.424;2023-06-14T09:58:08;101858.38;;;25.39;26.14
79221;BME280;68648;52.114;5.424;2023-06-14T10:00:36;101838.81;;;25.31;26.12
79221;BME280;68648;52.114;5.424;2023-06-14T10:03:14;101846.75;;;25.26;26.36
79221;BME280;68648;52.114;5.424;2023-06-14T10:05:43;101837.16;;;25.30;26.71
79221;BME280;68648;52.114;5.424;2023-06-14T10:08:16;101831.97;;;24.95;27.97
79221;BME280;68648;52.114;5.424;2023-06-14T10:10:44;101838.00;;;25.04;27.41
79221;BME280;68648;52.114;5.424;2023-06-14T10:13:11;101837.34;;;25.35;27.04
79221;BME280;68648;52.114;5.424;2023-06-14T10:15:58;101840.81;;;25.68;27.60
79221;BME280;68648;52.114;5.424;2023-06-14T10:18:35;101835.59;;;25.80;26.53
79221;BME280;68648;52.114;5.424;2023-06-14T10:21:15;101840.03;;;25.41;24.52
79221;BME280;68648;52.114;5.424;2023-06-14T10:23:44;101834.00;;;25.33;24.00
79221;BME280;68648;52.114;5.424;2023-06-14T10:26:22;101843.53;;;25.55;24.94
79221;BME280;68648;52.114;5.424;2023-06-14T10:29:07;101844.81;;;25.53;24.87
79221;BME280;68648;52.114;5.424;2023-06-14T10:31:57;101851.88;;;25.60;25.02
79221;BME280;68648;52.114;5.424;2023-06-14T10:34:30;101846.72;;;25.45;24.11
79221;BME280;68648;52.114;5.424;2023-06-14T10:37:11;101832.25;;;25.71;24.99
79221;BME280;68648;52.114;5.424;2023-06-14T10:39:41;101839.78;;;26.14;25.82
79221;BME280;68648;52.114;5.424;2023-06-14T10:42:09;101841.38;;;25.90;25.37
79221;BME280;68648;52.114;5.424;2023-06-14T10:44:46;101834.50;;;25.88;25.64
79221;BME280;68648;52.114;5.424;2023-06-14T10:50:05;101825.09;;;25.97;26.55
79221;BME280;68648;52.114;5.424;2023-06-14T10:52:40;101834.91;;;25.91;25.29
79221;BME280;68648;52.114;5.424;2023-06-14T10:55:13;101842.78;;;25.99;25.80
79221;BME280;68648;52.114;5.424;2023-06-14T10:57:50;101841.16;;;25.92;25.84
79221;BME280;68648;52.114;5.424;2023-06-14T11:00:22;101838.16;;;26.06;25.32
79221;BME280;68648;52.114;5.424;2023-06-14T11:02:56;101843.47;;;25.82;25.17
79221;BME280;68648;52.114;5.424;2023-06-14T11:05:49;101831.38;;;25.84;26.98
79221;BME280;68648;52.114;5.424;2023-06-14T11:09:08;101835.56;;;26.25;25.46
79221;BME280;68648;52.114;5.424;2023-06-14T11:11:39;101824.72;;;26.25;25.65
79221;BME280;68648;52.114;5.424;2023-06-14T11:14:15;101831.66;;;26.52;24.35
79221;BME280;68648;52.114;5.424;2023-06-14T11:16:42;101837.50;;;26.80;26.08
79221;BME280;68648;52.114;5.424;2023-06-14T11:19:17;101824.94;;;27.11;25.15
79221;BME280;68648;52.114;5.424;2023-06-14T11:22:06;101835.69;;;27.24;25.61
79221;BME280;68648;52.114;5.424;2023-06-14T11:24:34;101840.81;;;27.32;25.53
79221;BME280;68648;52.114;5.424;2023-06-14T11:27:06;101831.38;;;26.92;24.15
79221;BME280;68648;52.114;5.424;2023-06-14T11:29:33;101838.84;;;26.71;25.49
79221;BME280;68648;52.114;5.424;2023-06-14T11:32:00;101834.16;;;26.54;24.50
79221;BME280;68648;52.114;5.424;2023-06-14T11:34:27;101822.25;;;26.55;25.19
79221;BME280;68648;52.114;5.424;2023-06-14T11:36:54;101822.13;;;26.99;25.26
79221;BME280;68648;52.114;5.424;2023-06-14T11:39:24;101824.22;;;26.97;25.67
79221;BME280;68648;52.114;5.424;2023-06-14T11:41:51;101810.13;;;26.82;25.09
79221;BME280;68648;52.114;5.424;2023-06-14T11:44:18;101807.09;;;26.97;25.71
79221;BME280;68648;52.114;5.424;2023-06-14T11:46:45;101827.22;;;27.32;24.24
79221;BME280;68648;52.114;5.424;2023-06-14T11:49:12;101816.31;;;26.64;24.62
79221;BME280;68648;52.114;5.424;2023-06-14T11:51:38;101815.88;;;26.42;23.95
79221;BME280;68648;52.114;5.424;2023-06-14T11:54:06;101812.44;;;26.54;25.12
79221;BME280;68648;52.114;5.424;2023-06-14T11:56:34;101819.72;;;26.60;25.25
79221;BME280;68648;52.114;5.424;2023-06-14T11:59:03;101811.16;;;26.81;25.63
79221;BME280;68648;52.114;5.424;2023-06-14T12:01:30;101815.50;;;27.13;24.26
79221;BME280;68648;52.114;5.424;2023-06-14T12:03:59;101815.34;;;27.08;25.64
79221;BME280;68648;52.114;5.424;2023-06-14T12:06:29;101822.13;;;26.99;24.31
79221;BME280;68648;52.114;5.424;2023-06-14T12:09:03;101817.78;;;27.16;24.88
79221;BME280;68648;52.114;5.424;2023-06-14T12:11:35;101810.84;;;27.39;25.16
79221;BME280;68648;52.114;5.424;2023-06-14T12:14:03;101818.34;;;27.62;22.99
79221;BME280;68648;52.114;5.424;2023-06-14T12:16:32;101821.81;;;27.50;23.44
79221;BME280;68648;52.114;5.424;2023-06-14T12:19:11;101820.50;;;27.35;24.54
79221;BME280;68648;52.114;5.424;2023-06-14T12:21:39;101824.69;;;27.92;24.25
79221;BME280;68648;52.114;5.424;2023-06-14T12:24:07;101812.50;;;28.66;23.62
79221;BME280;68648;52.114;5.424;2023-06-14T12:26:38;101820.09;;;28.64;23.45
79221;BME280;68648;52.114;5.424;2023-06-14T12:29:06;101813.66;;;28.88;23.08
79221;BME280;68648;52.114;5.424;2023-06-14T12:31:34;101819.66;;;28.90;22.38
79221;BME280;68648;52.114;5.424;2023-06-14T12:34:01;101815.47;;;28.53;22.55
79221;BME280;68648;52.114;5.424;2023-06-14T12:36:28;101823.03;;;27.91;22.01
79221;BME280;68648;52.114;5.424;2023-06-14T12:38:55;101817.91;;;27.03;24.29
79221;BME280;68648;52.114;5.424;2023-06-14T12:41:21;101824.50;;;27.32;23.35
79221;BME280;68648;52.114;5.424;2023-06-14T12:43:48;101825.22;;;27.64;23.30
79221;BME280;68648;52.114;5.424;2023-06-14T12:46:15;101825.34;;;27.33;23.34
79221;BME280;68648;52.114;5.424;2023-06-14T12:48:42;101824.53;;;26.82;24.04
79221;BME280;68648;52.114;5.424;2023-06-14T12:51:08;101817.00;;;27.71;24.25
79221;BME280;68648;52.114;5.424;2023-06-14T12:53:37;101824.69;;;28.52;21.58
79221;BME280;68648;52.114;5.424;2023-06-14T12:56:05;101821.72;;;27.94;22.74
79221;BME280;68648;52.114;5.424;2023-06-14T12:58:34;101812.81;;;28.16;21.66
79221;BME280;68648;52.114;5.424;2023-06-14T13:01:01;101823.28;;;28.61;21.94
79221;BME280;68648;52.114;5.424;2023-06-14T13:03:28;101833.47;;;28.54;20.55
79221;BME280;68648;52.114;5.424;2023-06-14T13:05:55;101838.72;;;28.07;21.93